sensor_id;sensor_type;location;lat;lon;timestamp;pressure;altitude;pressure_sealevel;temperature;humidity
4598;BME280;62772;48.646;8.906;2022-12-18T00:01:38;97255.56;;;-13.56;100.00
4598;BME280;62772;48.646;8.906;2022-12-18T00:06:38;97257.06;;;-12.77;100.00
4598;BME280;62772;48.646;8.906;2022-12-18T00:11:39;97253.44;;;-12.47;100.00
4598;BME280;62772;48.646;8.906;2022-12-18T00:16:40;97248.28;;;-12.47;100.00
4598;BME280;62772;48.646;8.906;2022-12-18T00:21:43;97246.19;;;-12.61;100.00
4598;BME280;62772;48.646;8.906;2022-12-18T00:26:44;97254.69;;;-12.61;100.00
4598;BME280;62772;48.646;8.906;2022-12-18T00:31:45;97268.50;;;-13.09;100.00
4598;BME280;62772;48.646;8.906;2022-12-18T00:36:47;97270.19;;;-12.80;100.00
4598;BME280;62772;48.646;8.906;2022-12-18T00:41:47;97256.06;;;-12.66;100.00
4598;BME280;62772;48.646;8.906;2022-12-18T00:47:06;97248.06;;;-12.63;100.00
4598;BME280;62772;48.646;8.906;2022-12-18T00:52:07;97251.78;;;-12.75;100.00
4598;BME280;62772;48.646;8.906;2022-12-18T00:57:07;97259.03;;;-12.71;100.00
4598;BME280;62772;48.646;8.906;2022-12-18T01:02:08;97261.88;;;-13.21;100.00
4598;BME280;62772;48.646;8.906;2022-12-18T01:07:08;97264.75;;;-12.67;100.00
4598;BME280;62772;48.646;8.906;2022-12-18T01:12:09;97257.59;;;-12.73;100.00
4598;BME280;62772;48.646;8.906;2022-12-18T01:17:10;97265.84;;;-12.80;100.00
4598;BME280;62772;48.646;8.906;2022-12-18T01:22:10;97247.44;;;-12.75;100.00
4598;BME280;62772;48.646;8.906;2022-12-18T01:27:12;97249.16;;;-12.66;100.00
4598;BME280;62772;48.646;8.906;2022-12-18T01:32:13;97249.06;;;-12.74;100.00
4598;BME280;62772;48.646;8.906;2022-12-18T01:37:15;97262.06;;;-12.75;100.00
4598;BME280;62772;48.646;8.906;2022-12-18T01:42:16;97267.97;;;-12.65;100.00
4598;BME280;62772;48.646;8.906;2022-12-18T01:47:35;97261.75;;;-12.72;100.00
4598;BME280;62772;48.646;8.906;2022-12-18T01:52:42;97253.44;;;-12.94;100.00
4598;BME280;62772;48.646;8.906;2022-12-18T01:57:44;97263.31;;;-12.89;100.00
4598;BME280;62772;48.646;8.906;2022-12-18T02:02:46;97260.34;;;-13.04;100.00
4598;BME280;62772;48.646;8.906;2022-12-18T02:18:30;97273.47;;;-13.95;100.00
4598;BME280;62772;48.646;8.906;2022-12-18T02:28:55;97273.53;;;-13.76;100.00
4598;BME280;62772;48.646;8.906;2022-12-18T02:34:02;97267.16;;;-13.23;100.00
4598;BME280;62772;48.646;8.906;2022-12-18T02:39:07;97280.06;;;-12.85;100.00
4598;BME280;62772;48.646;8.906;2022-12-18T02:44:12;97288.38;;;-13.21;100.00
4598;BME280;62772;48.646;8.906;2022-12-18T02:49:41;97271.94;;;-12.81;100.00
4598;BME280;62772;48.646;8.906;2022-12-18T03:00:23;97268.31;;;-12.41;100.00
4598;BME280;62772;48.646;8.906;2022-12-18T03:05:31;97273.75;;;-12.16;100.00
4598;BME280;62772;48.646;8.906;2022-12-18T03:10:38;97275.47;;;-12.07;100.00
4598;BME280;62772;48.646;8.906;2022-12-18T03:15:47;97282.75;;;-12.30;100.00
4598;BME280;62772;48.646;8.906;2022-12-18T03:20:51;97285.91;;;-12.08;100.00
4598;BME280;62772;48.646;8.906;2022-12-18T03:25:58;97279.47;;;-11.94;100.00
4598;BME280;62772;48.646;8.906;2022-12-18T03:31:01;97292.22;;;-11.93;100.00
4598;BME280;62772;48.646;8.906;2022-12-18T03:36:05;97293.16;;;-11.94;100.00
4598;BME280;62772;48.646;8.906;2022-12-18T03:46:59;97278.59;;;-11.67;100.00
4598;BME280;62772;48.646;8.906;2022-12-18T03:52:09;97283.06;;;-11.69;100.00
4598;BME280;62772;48.646;8.906;2022-12-18T03:57:25;97279.63;;;-11.60;100.00
4598;BME280;62772;48.646;8.906;2022-12-18T04:02:29;97283.09;;;-11.51;100.00
4598;BME280;62772;48.646;8.906;2022-12-18T04:07:33;97289.13;;;-11.42;100.00
4598;BME280;62772;48.646;8.906;2022-12-18T04:12:37;97271.81;;;-11.14;100.00
4598;BME280;62772;48.646;8.906;2022-12-18T04:17:40;97280.75;;;-11.26;100.00
4598;BME280;62772;48.646;8.906;2022-12-18T04:22:43;97281.72;;;-11.27;100.00
4598;BME280;62772;48.646;8.906;2022-12-18T04:27:45;97291.72;;;-11.06;100.00
4598;BME280;62772;48.646;8.906;2022-12-18T04:32:46;97281.84;;;-10.85;100.00
4598;BME280;62772;48.646;8.906;2022-12-18T04:37:47;97275.66;;;-10.74;100.00
4598;BME280;62772;48.646;8.906;2022-12-18T04:42:49;97280.59;;;-10.81;100.00
4598;BME280;62772;48.646;8.906;2022-12-18T04:47:49;97272.41;;;-10.76;100.00
4598;BME280;62772;48.646;8.906;2022-12-18T04:52:50;97267.78;;;-10.64;100.00
4598;BME280;62772;48.646;8.906;2022-12-18T04:57:51;97273.53;;;-10.52;100.00
4598;BME280;62772;48.646;8.906;2022-12-18T05:02:51;97278.34;;;-10.57;100.00
4598;BME280;62772;48.646;8.906;2022-12-18T05:07:52;97267.91;;;-10.48;100.00
4598;BME280;62772;48.646;8.906;2022-12-18T05:12:52;97278.94;;;-10.37;100.00
4598;BME280;62772;48.646;8.906;2022-12-18T05:17:59;97274.78;;;-10.22;100.00
4598;BME280;62772;48.646;8.906;2022-12-18T05:22:59;97273.91;;;-10.31;100.00
4598;BME280;62772;48.646;8.906;2022-12-18T05:28:00;97276.34;;;-10.37;100.00
4598;BME280;62772;48.646;8.906;2022-12-18T05:33:01;97271.25;;;-10.55;100.00
4598;BME280;62772;48.646;8.906;2022-12-18T05:38:01;97281.72;;;-10.83;100.00
4598;BME280;62772;48.646;8.906;2022-12-18T05:43:01;97281.25;;;-10.79;100.00
4598;BME280;62772;48.646;8.906;2022-12-18T05:48:07;97273.56;;;-10.97;100.00
4598;BME280;62772;48.646;8.906;2022-12-18T05:53:08;97279.84;;;-11.17;100.00
4598;BME280;62772;48.646;8.906;2022-12-18T05:58:10;97266.16;;;-11.18;100.00
4598;BME280;62772;48.646;8.906;2022-12-18T06:03:12;97274.75;;;-11.63;100.00
4598;BME280;62772;48.646;8.906;2022-12-18T06:08:13;97271.47;;;-11.19;100.00
4598;BME280;62772;48.646;8.906;2022-12-18T06:13:14;97290.41;;;-11.28;100.00
4598;BME280;62772;48.646;8.906;2022-12-18T06:18:14;97304.75;;;-11.08;100.00
4598;BME280;62772;48.646;8.906;2022-12-18T06:23:15;97299.59;;;-11.44;100.00
4598;BME280;62772;48.646;8.906;2022-12-18T06:28:15;97310.47;;;-11.68;100.00
4598;BME280;62772;48.646;8.906;2022-12-18T06:33:18;97312.88;;;-11.39;100.00
4598;BME280;62772;48.646;8.906;2022-12-18T06:38:19;97318.19;;;-11.40;100.00
4598;BME280;62772;48.646;8.906;2022-12-18T06:43:20;97312.78;;;-10.93;100.00
4598;BME280;62772;48.646;8.906;2022-12-18T06:48:20;97316.88;;;-10.82;100.00
4598;BME280;62772;48.646;8.906;2022-12-18T06:53:21;97318.47;;;-11.25;100.00
4598;BME280;62772;48.646;8.906;2022-12-18T06:58:22;97331.41;;;-11.53;100.00
4598;BME280;62772;48.646;8.906;2022-12-18T07:03:22;97335.97;;;-11.65;100.00
4598;BME280;62772;48.646;8.906;2022-12-18T07:08:23;97348.38;;;-12.34;100.00
4598;BME280;62772;48.646;8.906;2022-12-18T07:13:23;97351.06;;;-11.70;100.00
4598;BME280;62772;48.646;8.906;2022-12-18T07:18:24;97355.88;;;-11.39;100.00
4598;BME280;62772;48.646;8.906;2022-12-18T07:23:24;97352.59;;;-11.14;100.00
4598;BME280;62772;48.646;8.906;2022-12-18T07:28:25;97348.97;;;-11.03;100.00
4598;BME280;62772;48.646;8.906;2022-12-18T07:33:25;97350.63;;;-11.02;100.00
4598;BME280;62772;48.646;8.906;2022-12-18T07:38:26;97341.09;;;-11.01;100.00
4598;BME280;62772;48.646;8.906;2022-12-18T07:43:27;97344.91;;;-11.41;100.00
4598;BME280;62772;48.646;8.906;2022-12-18T07:48:28;97348.44;;;-11.42;100.00
4598;BME280;62772;48.646;8.906;2022-12-18T07:53:29;97365.69;;;-11.43;100.00
4598;BME280;62772;48.646;8.906;2022-12-18T07:58:30;97362.53;;;-11.19;100.00
4598;BME280;62772;48.646;8.906;2022-12-18T08:03:31;97369.25;;;-11.08;100.00
4598;BME280;62772;48.646;8.906;2022-12-18T08:08:33;97361.81;;;-11.29;100.00
4598;BME280;62772;48.646;8.906;2022-12-18T08:13:33;97360.25;;;-11.40;100.00
4598;BME280;62772;48.646;8.906;2022-12-18T08:18:36;97369.53;;;-10.93;100.00
4598;BME280;62772;48.646;8.906;2022-12-18T08:23:37;97373.00;;;-11.02;100.00
4598;BME280;62772;48.646;8.906;2022-12-18T08:28:38;97366.53;;;-11.06;100.00
4598;BME280;62772;48.646;8.906;2022-12-18T08:33:39;97358.94;;;-10.72;100.00
4598;BME280;62772;48.646;8.906;2022-12-18T08:38:40;97360.97;;;-10.57;100.00
4598;BME280;62772;48.646;8.906;2022-12-18T08:43:41;97362.78;;;-10.50;100.00
4598;BME280;62772;48.646;8.906;2022-12-18T08:49:00;97362.00;;;-10.68;100.00
4598;BME280;62772;48.646;8.906;2022-12-18T08:54:01;97357.19;;;-10.63;100.00
4598;BME280;62772;48.646;8.906;2022-12-18T08:59:02;97351.31;;;-10.91;100.00
4598;BME280;62772;48.646;8.906;2022-12-18T09:04:02;97351.09;;;-10.62;100.00
4598;BME280;62772;48.646;8.906;2022-12-18T09:09:04;97349.50;;;-10.55;100.00
4598;BME280;62772;48.646;8.906;2022-12-18T09:14:05;97337.38;;;-10.36;100.00
4598;BME280;62772;48.646;8.906;2022-12-18T09:19:06;97341.16;;;-10.49;100.00
4598;BME280;62772;48.646;8.906;2022-12-18T09:24:08;97340.47;;;-10.33;100.00
4598;BME280;62772;48.646;8.906;2022-12-18T09:29:12;97343.00;;;-10.41;100.00
4598;BME280;62772;48.646;8.906;2022-12-18T09:34:12;97341.63;;;-10.19;100.00
4598;BME280;62772;48.646;8.906;2022-12-18T09:39:13;97337.84;;;-10.07;100.00
4598;BME280;62772;48.646;8.906;2022-12-18T09:49:36;97341.63;;;-9.85;100.00
4598;BME280;62772;48.646;8.906;2022-12-18T09:54:39;97336.19;;;-9.73;100.00
4598;BME280;62772;48.646;8.906;2022-12-18T09:59:44;97342.22;;;-9.56;100.00
4598;BME280;62772;48.646;8.906;2022-12-18T10:04:54;97345.34;;;-9.44;100.00
4598;BME280;62772;48.646;8.906;2022-12-18T10:15:30;97335.50;;;-9.16;100.00
4598;BME280;62772;48.646;8.906;2022-12-18T10:20:55;97343.63;;;-9.11;100.00
4598;BME280;62772;48.646;8.906;2022-12-18T10:26:05;97341.53;;;-8.99;100.00
4598;BME280;62772;48.646;8.906;2022-12-18T10:31:26;97342.84;;;-8.87;100.00
4598;BME280;62772;48.646;8.906;2022-12-18T10:36:26;97332.63;;;-8.80;100.00
4598;BME280;62772;48.646;8.906;2022-12-18T10:41:27;97344.78;;;-8.72;100.00
4598;BME280;62772;48.646;8.906;2022-12-18T10:46:28;97329.22;;;-8.56;100.00
4598;BME280;62772;48.646;8.906;2022-12-18T10:51:31;97335.22;;;-8.47;100.00
4598;BME280;62772;48.646;8.906;2022-12-18T10:56:34;97323.19;;;-8.40;100.00
4598;BME280;62772;48.646;8.906;2022-12-18T11:07:00;97308.56;;;-8.25;100.00
4598;BME280;62772;48.646;8.906;2022-12-18T11:12:08;97312.91;;;-8.09;100.00
4598;BME280;62772;48.646;8.906;2022-12-18T11:17:35;97300.19;;;-7.87;100.00
4598;BME280;62772;48.646;8.906;2022-12-18T11:22:37;97307.59;;;-7.76;100.00
4598;BME280;62772;48.646;8.906;2022-12-18T11:27:39;97306.94;;;-7.70;100.00
4598;BME280;62772;48.646;8.906;2022-12-18T11:32:53;97308.47;;;-7.60;100.00
4598;BME280;62772;48.646;8.906;2022-12-18T11:38:12;97287.84;;;-7.45;100.00
4598;BME280;62772;48.646;8.906;2022-12-18T11:43:21;97290.81;;;-7.34;100.00
4598;BME280;62772;48.646;8.906;2022-12-18T11:48:27;97281.09;;;-7.32;100.00
4598;BME280;62772;48.646;8.906;2022-12-18T11:53:29;97281.84;;;-7.23;100.00
4598;BME280;62772;48.646;8.906;2022-12-18T11:59:32;97278.66;;;-7.10;100.00
4598;BME280;62772;48.646;8.906;2022-12-18T12:14:49;97273.22;;;-6.77;100.00
4598;BME280;62772;48.646;8.906;2022-12-18T12:30:35;97254.34;;;-6.41;100.00
4598;BME280;62772;48.646;8.906;2022-12-18T12:41:06;97260.72;;;-6.29;100.00
4598;BME280;62772;48.646;8.906;2022-12-18T12:46:31;97270.31;;;-6.14;100.00
4598;BME280;62772;48.646;8.906;2022-12-18T12:51:36;97267.88;;;-6.16;100.00
4598;BME280;62772;48.646;8.906;2022-12-18T12:56:46;97274.78;;;-6.08;100.00
4598;BME280;62772;48.646;8.906;2022-12-18T13:12:28;97276.53;;;-5.94;100.00
4598;BME280;62772;48.646;8.906;2022-12-18T13:17:48;97280.16;;;-5.95;100.00
4598;BME280;62772;48.646;8.906;2022-12-18T13:22:49;97283.94;;;-5.97;100.00
4598;BME280;62772;48.646;8.906;2022-12-18T13:38:36;97268.38;;;-5.91;100.00
4598;BME280;62772;48.646;8.906;2022-12-18T13:43:42;97261.47;;;-5.84;100.00
4598;BME280;62772;48.646;8.906;2022-12-18T13:48:50;97256.69;;;-5.80;100.00
4598;BME280;62772;48.646;8.906;2022-12-18T13:53:55;97258.69;;;-5.82;100.00
4598;BME280;62772;48.646;8.906;2022-12-18T13:59:20;97262.97;;;-5.74;100.00
4598;BME280;62772;48.646;8.906;2022-12-18T14:04:23;97267.91;;;-5.79;100.00
4598;BME280;62772;48.646;8.906;2022-12-18T14:09:27;97269.97;;;-5.75;100.00
4598;BME280;62772;48.646;8.906;2022-12-18T14:14:29;97258.75;;;-5.75;100.00
4598;BME280;62772;48.646;8.906;2022-12-18T14:19:29;97267.53;;;-5.76;100.00
4598;BME280;62772;48.646;8.906;2022-12-18T14:24:30;97266.81;;;-5.70;100.00
4598;BME280;62772;48.646;8.906;2022-12-18T14:29:30;97267.78;;;-5.71;100.00
4598;BME280;62772;48.646;8.906;2022-12-18T14:34:31;97275.91;;;-5.81;100.00
4598;BME280;62772;48.646;8.906;2022-12-18T14:39:32;97267.41;;;-5.90;100.00
4598;BME280;62772;48.646;8.906;2022-12-18T14:44:32;97263.59;;;-5.87;100.00
4598;BME280;62772;48.646;8.906;2022-12-18T14:49:33;97264.09;;;-5.98;100.00
4598;BME280;62772;48.646;8.906;2022-12-18T14:54:35;97266.28;;;-6.02;100.00
4598;BME280;62772;48.646;8.906;2022-12-18T14:59:37;97275.34;;;-5.98;100.00
4598;BME280;62772;48.646;8.906;2022-12-18T15:20:46;97279.63;;;-6.05;100.00
4598;BME280;62772;48.646;8.906;2022-12-18T15:25:57;97274.63;;;-6.07;100.00
4598;BME280;62772;48.646;8.906;2022-12-18T15:36:04;97281.94;;;-6.25;100.00
4598;BME280;62772;48.646;8.906;2022-12-18T15:41:06;97291.19;;;-6.23;100.00
4598;BME280;62772;48.646;8.906;2022-12-18T15:56:22;97279.19;;;-6.24;100.00
4598;BME280;62772;48.646;8.906;2022-12-18T16:01:42;97277.09;;;-6.28;100.00
4598;BME280;62772;48.646;8.906;2022-12-18T16:06:43;97283.97;;;-6.12;100.00
4598;BME280;62772;48.646;8.906;2022-12-18T16:11:44;97284.50;;;-6.17;100.00
4598;BME280;62772;48.646;8.906;2022-12-18T16:16:49;97281.13;;;-6.56;100.00
4598;BME280;62772;48.646;8.906;2022-12-18T16:21:51;97276.22;;;-6.21;100.00
4598;BME280;62772;48.646;8.906;2022-12-18T16:26:53;97282.41;;;-6.07;100.00
4598;BME280;62772;48.646;8.906;2022-12-18T16:31:59;97282.78;;;-6.25;100.00
4598;BME280;62772;48.646;8.906;2022-12-18T16:37:02;97274.63;;;-6.22;100.00
4598;BME280;62772;48.646;8.906;2022-12-18T16:42:05;97280.00;;;-6.08;100.00
4598;BME280;62772;48.646;8.906;2022-12-18T16:47:06;97276.56;;;-6.24;100.00
4598;BME280;62772;48.646;8.906;2022-12-18T16:52:07;97270.66;;;-6.17;100.00
4598;BME280;62772;48.646;8.906;2022-12-18T16:57:12;97263.88;;;-6.18;100.00
4598;BME280;62772;48.646;8.906;2022-12-18T17:02:15;97266.66;;;-6.20;100.00
4598;BME280;62772;48.646;8.906;2022-12-18T17:07:15;97260.72;;;-6.29;100.00
4598;BME280;62772;48.646;8.906;2022-12-18T17:12:16;97259.56;;;-6.26;100.00
4598;BME280;62772;48.646;8.906;2022-12-18T17:17:17;97254.00;;;-6.23;100.00
4598;BME280;62772;48.646;8.906;2022-12-18T17:22:19;97236.50;;;-6.44;100.00
4598;BME280;62772;48.646;8.906;2022-12-18T17:27:19;97236.44;;;-6.36;100.00
4598;BME280;62772;48.646;8.906;2022-12-18T17:32:20;97240.97;;;-6.38;100.00
4598;BME280;62772;48.646;8.906;2022-12-18T17:37:20;97236.97;;;-6.26;100.00
4598;BME280;62772;48.646;8.906;2022-12-18T17:42:21;97252.31;;;-6.46;100.00
4598;BME280;62772;48.646;8.906;2022-12-18T17:47:22;97243.75;;;-6.40;100.00
4598;BME280;62772;48.646;8.906;2022-12-18T17:52:22;97255.06;;;-6.17;100.00
4598;BME280;62772;48.646;8.906;2022-12-18T17:57:23;97248.16;;;-6.40;100.00
4598;BME280;62772;48.646;8.906;2022-12-18T18:02:23;97242.88;;;-6.02;100.00
4598;BME280;62772;48.646;8.906;2022-12-18T18:07:24;97240.00;;;-6.52;100.00
4598;BME280;62772;48.646;8.906;2022-12-18T18:12:24;97233.97;;;-6.08;100.00
4598;BME280;62772;48.646;8.906;2022-12-18T18:17:44;97239.22;;;-6.38;100.00
4598;BME280;62772;48.646;8.906;2022-12-18T18:22:44;97238.69;;;-6.33;100.00
4598;BME280;62772;48.646;8.906;2022-12-18T18:27:45;97238.31;;;-6.30;100.00
4598;BME280;62772;48.646;8.906;2022-12-18T18:32:45;97243.22;;;-6.05;100.00
4598;BME280;62772;48.646;8.906;2022-12-18T18:37:49;97240.97;;;-6.08;100.00
4598;BME280;62772;48.646;8.906;2022-12-18T18:42:49;97240.91;;;-5.78;100.00
4598;BME280;62772;48.646;8.906;2022-12-18T18:47:51;97246.53;;;-5.96;100.00
4598;BME280;62772;48.646;8.906;2022-12-18T18:52:51;97251.81;;;-6.05;100.00
4598;BME280;62772;48.646;8.906;2022-12-18T18:57:52;97254.94;;;-5.94;100.00
4598;BME280;62772;48.646;8.906;2022-12-18T19:02:53;97243.72;;;-5.95;100.00
4598;BME280;62772;48.646;8.906;2022-12-18T19:07:54;97225.50;;;-5.58;100.00
4598;BME280;62772;48.646;8.906;2022-12-18T19:12:54;97221.19;;;-5.51;100.00
4598;BME280;62772;48.646;8.906;2022-12-18T19:18:13;97206.53;;;-5.52;100.00
4598;BME280;62772;48.646;8.906;2022-12-18T19:23:14;97203.88;;;-5.59;100.00
4598;BME280;62772;48.646;8.906;2022-12-18T19:28:15;97205.44;;;-5.43;100.00
4598;BME280;62772;48.646;8.906;2022-12-18T19:33:15;97199.16;;;-5.70;100.00
4598;BME280;62772;48.646;8.906;2022-12-18T19:38:16;97194.72;;;-5.55;100.00
4598;BME280;62772;48.646;8.906;2022-12-18T19:43:17;97197.44;;;-5.63;100.00
4598;BME280;62772;48.646;8.906;2022-12-18T19:48:18;97186.41;;;-5.65;100.00
4598;BME280;62772;48.646;8.906;2022-12-18T19:53:18;97188.03;;;-5.64;100.00
4598;BME280;62772;48.646;8.906;2022-12-18T19:58:19;97182.09;;;-5.73;100.00
4598;BME280;62772;48.646;8.906;2022-12-18T20:03:19;97179.44;;;-5.79;100.00
4598;BME280;62772;48.646;8.906;2022-12-18T20:08:20;97172.47;;;-5.79;100.00
4598;BME280;62772;48.646;8.906;2022-12-18T20:13:20;97151.25;;;-5.76;100.00
4598;BME280;62772;48.646;8.906;2022-12-18T20:18:21;97148.38;;;-5.66;100.00
4598;BME280;62772;48.646;8.906;2022-12-18T20:23:21;97145.31;;;-5.70;100.00
4598;BME280;62772;48.646;8.906;2022-12-18T20:28:23;97150.59;;;-5.63;100.00
4598;BME280;62772;48.646;8.906;2022-12-18T20:33:24;97147.03;;;-5.55;100.00
4598;BME280;62772;48.646;8.906;2022-12-18T20:38:25;97138.06;;;-5.53;100.00
4598;BME280;62772;48.646;8.906;2022-12-18T20:43:25;97143.56;;;-5.41;100.00
4598;BME280;62772;48.646;8.906;2022-12-18T20:48:27;97139.78;;;-5.60;100.00
4598;BME280;62772;48.646;8.906;2022-12-18T20:53:27;97132.88;;;-5.53;100.00
4598;BME280;62772;48.646;8.906;2022-12-18T20:58:28;97152.44;;;-5.57;100.00
4598;BME280;62772;48.646;8.906;2022-12-18T21:03:28;97165.09;;;-5.54;100.00
4598;BME280;62772;48.646;8.906;2022-12-18T21:08:29;97153.94;;;-5.48;100.00
4598;BME280;62772;48.646;8.906;2022-12-18T21:13:29;97142.94;;;-5.43;100.00
4598;BME280;62772;48.646;8.906;2022-12-18T21:18:30;97149.94;;;-5.22;100.00
4598;BME280;62772;48.646;8.906;2022-12-18T21:23:30;97154.09;;;-5.28;100.00
4598;BME280;62772;48.646;8.906;2022-12-18T21:28:31;97145.59;;;-5.15;100.00
4598;BME280;62772;48.646;8.906;2022-12-18T21:33:32;97130.22;;;-5.03;100.00
4598;BME280;62772;48.646;8.906;2022-12-18T21:38:33;97133.09;;;-4.98;100.00
4598;BME280;62772;48.646;8.906;2022-12-18T21:43:36;97144.06;;;-5.02;100.00
4598;BME280;62772;48.646;8.906;2022-12-18T21:48:55;97132.00;;;-4.75;100.00
4598;BME280;62772;48.646;8.906;2022-12-18T21:53:56;97130.72;;;-4.93;100.00
4598;BME280;62772;48.646;8.906;2022-12-18T21:58:57;97127.94;;;-4.84;100.00
4598;BME280;62772;48.646;8.906;2022-12-18T22:03:57;97126.44;;;-4.72;100.00
4598;BME280;62772;48.646;8.906;2022-12-18T22:08:58;97117.75;;;-4.79;100.00
4598;BME280;62772;48.646;8.906;2022-12-18T22:13:58;97108.44;;;-4.53;100.00
4598;BME280;62772;48.646;8.906;2022-12-18T22:18:59;97107.47;;;-4.46;100.00
4598;BME280;62772;48.646;8.906;2022-12-18T22:24:02;97115.66;;;-4.56;100.00
4598;BME280;62772;48.646;8.906;2022-12-18T22:29:03;97114.09;;;-4.50;100.00
4598;BME280;62772;48.646;8.906;2022-12-18T22:34:22;97111.59;;;-4.65;100.00
4598;BME280;62772;48.646;8.906;2022-12-18T22:39:25;97118.25;;;-4.62;100.00
4598;BME280;62772;48.646;8.906;2022-12-18T22:44:26;97109.72;;;-4.36;100.00
4598;BME280;62772;48.646;8.906;2022-12-18T22:49:27;97118.28;;;-4.49;100.00
4598;BME280;62772;48.646;8.906;2022-12-18T22:54:27;97126.38;;;-4.44;100.00
4598;BME280;62772;48.646;8.906;2022-12-18T22:59:28;97129.56;;;-4.48;100.00
4598;BME280;62772;48.646;8.906;2022-12-18T23:04:28;97132.22;;;-4.35;100.00
4598;BME280;62772;48.646;8.906;2022-12-18T23:09:29;97134.38;;;-4.45;100.00
4598;BME280;62772;48.646;8.906;2022-12-18T23:14:30;97135.84;;;-4.29;100.00
4598;BME280;62772;48.646;8.906;2022-12-18T23:19:31;97130.84;;;-4.31;100.00
4598;BME280;62772;48.646;8.906;2022-12-18T23:24:31;97117.13;;;-4.40;100.00
4598;BME280;62772;48.646;8.906;2022-12-18T23:29:32;97116.53;;;-4.42;100.00
4598;BME280;62772;48.646;8.906;2022-12-18T23:34:32;97112.78;;;-4.26;100.00
4598;BME280;62772;48.646;8.906;2022-12-18T23:39:33;97117.94;;;-4.39;100.00
4598;BME280;62772;48.646;8.906;2022-12-18T23:44:33;97120.03;;;-4.21;100.00
4598;BME280;62772;48.646;8.906;2022-12-18T23:49:34;97127.09;;;-4.02;100.00
4598;BME280;62772;48.646;8.906;2022-12-18T23:54:34;97120.91;;;-4.01;100.00
4598;BME280;62772;48.646;8.906;2022-12-18T23:59:34;97122.69;;;-4.01;100.00
